Hazel Crest, Illinois
Current Conditions -  °F | °C
As of 5:15 PM on Friday 31 Oct 2014 (Local Time) from KIGQ Reporting Station
Light Rain Light Rain  
Wind Chill: 28°   Ceiling: 5000
Heat Index: 39°   Visibility: 10mi
Dew Point: 30°   Wind: 24mph
Humidity: 69%   Direction: 10°N
Pressure: 30.22"   Gusts: 43mph
Location:  41.58°N, 87.69°W
Report Text: KIGQ 312215Z AUTO 01021G37KT 10SM -RA SCT028 BKN050 OVC080 04/M01 A3022 RMK AO2 T00401012
Loading
Personal Weather Stations






























Interactive Weather Map
Tropical Storm Tracking
New forecast layout! Learn more

10-Day Weather Forecast

Advertisements
Track Severe Weather on mobile